createdAt,value
2018-02-01T00:00:55.697Z,2.85
2018-02-01T00:01:55.708Z,2.85
2018-02-01T00:02:55.731Z,2.90
2018-02-01T00:03:55.741Z,2.81
2018-02-01T00:04:55.763Z,2.91
2018-02-01T00:05:55.774Z,2.84
2018-02-01T00:06:55.798Z,2.80
2018-02-01T00:07:55.811Z,2.87
2018-02-01T00:08:55.830Z,2.76
2018-02-01T00:09:55.847Z,2.85
2018-02-01T00:10:55.858Z,2.87
2018-02-01T00:11:55.880Z,2.85
2018-02-01T00:12:55.891Z,2.84
2018-02-01T00:13:55.913Z,2.84
2018-02-01T00:14:55.929Z,2.87
2018-02-01T00:15:55.947Z,2.88
2018-02-01T00:16:55.958Z,2.85
2018-02-01T00:17:55.980Z,2.87
2018-02-01T00:18:55.993Z,2.90
2018-02-01T00:19:56.013Z,2.83
2018-02-01T00:20:56.025Z,2.90
2018-02-01T00:21:56.047Z,2.73
2018-02-01T00:22:56.057Z,2.80
2018-02-01T00:23:56.091Z,2.78
2018-02-01T00:24:56.095Z,2.83
2018-02-01T00:25:56.113Z,2.87
2018-02-01T00:26:56.125Z,2.90
2018-02-01T00:27:56.140Z,2.78
2018-02-01T00:28:56.158Z,2.81
2018-02-01T00:29:56.180Z,2.77
2018-02-01T00:30:56.189Z,2.87
2018-02-01T00:31:56.213Z,2.87
2018-02-01T00:32:56.223Z,2.87
2018-02-01T00:33:56.247Z,2.84
2018-02-01T00:34:56.263Z,2.76
2018-02-01T00:35:56.274Z,2.90
2018-02-01T00:36:56.290Z,2.81
2018-02-01T00:37:56.312Z,2.80
2018-02-01T00:38:56.329Z,2.83
2018-02-01T00:39:56.339Z,2.88
2018-02-01T00:40:56.356Z,2.78
2018-02-01T00:41:56.372Z,2.90
2018-02-01T00:42:56.395Z,2.95
2018-02-01T00:43:56.411Z,2.91
2018-02-01T00:44:56.428Z,2.91
2018-02-01T00:45:56.438Z,2.91
2018-02-01T00:46:56.461Z,2.91
2018-02-01T00:47:56.471Z,2.85
2018-02-01T00:48:56.493Z,2.93
2018-02-01T00:49:56.504Z,2.96
2018-02-01T00:50:56.521Z,2.87
2018-02-01T00:51:56.542Z,2.96
2018-02-01T00:52:56.560Z,2.99
2018-02-01T00:53:56.571Z,2.99
2018-02-01T00:54:56.588Z,2.96
2018-02-01T00:55:56.609Z,2.91
2018-02-01T00:56:56.620Z,2.95
2018-02-01T00:57:56.642Z,2.85
2018-02-01T00:58:56.659Z,2.90
2018-02-01T00:59:56.669Z,2.90
2018-02-01T01:00:56.685Z,2.88
2018-02-01T01:01:56.709Z,2.84
2018-02-01T01:02:56.725Z,2.90
2018-02-01T01:03:56.735Z,2.90
2018-02-01T01:04:56.751Z,2.84
2018-02-01T01:05:56.774Z,2.88
2018-02-01T01:06:56.790Z,2.91
2018-02-01T01:07:56.801Z,2.93
2018-02-01T01:08:56.817Z,2.88
2018-02-01T01:09:56.839Z,2.88
2018-02-01T01:10:56.856Z,2.90
2018-02-01T01:11:56.866Z,2.87
2018-02-01T01:12:56.889Z,2.87
2018-02-01T01:13:56.899Z,2.80
2018-02-01T01:14:56.917Z,2.95
2018-02-01T01:15:56.937Z,2.88
2018-02-01T01:16:56.954Z,2.91
2018-02-01T01:17:56.966Z,2.91
2018-02-01T01:18:56.982Z,2.90
2018-02-01T01:19:57.003Z,2.83
2018-02-01T01:20:57.019Z,2.91
2018-02-01T01:21:57.031Z,2.96
2018-02-01T01:22:57.053Z,2.99
2018-02-01T01:23:57.068Z,2.95
2018-02-01T01:24:57.085Z,2.99
2018-02-01T01:25:57.101Z,2.96
2018-02-01T01:26:57.119Z,2.98
2018-02-01T01:27:57.128Z,2.96
2018-02-01T01:28:57.145Z,2.93
2018-02-01T01:29:57.167Z,3.01
2018-02-01T01:30:57.178Z,3.03
2018-02-01T01:31:57.200Z,3.11
2018-02-01T01:32:57.209Z,3.06
2018-02-01T01:33:57.235Z,3.06
2018-02-01T01:34:57.244Z,3.03
2018-02-01T01:35:57.265Z,3.08
2018-02-01T01:36:57.275Z,3.08
2018-02-01T01:37:57.293Z,3.08
2018-02-01T01:38:57.318Z,3.14
2018-02-01T01:39:57.324Z,3.11
2018-02-01T01:40:57.346Z,3.08
2018-02-01T01:41:57.357Z,3.16
2018-02-01T01:42:57.374Z,3.17
2018-02-01T01:43:57.390Z,3.16
2018-02-01T01:44:57.412Z,3.19
2018-02-01T01:45:57.423Z,3.08
2018-02-01T01:46:57.445Z,3.05
2018-02-01T01:47:57.455Z,3.20
2018-02-01T01:48:57.477Z,3.09
2018-02-01T01:49:57.489Z,3.11
2018-02-01T01:50:57.511Z,3.05
2018-02-01T01:51:57.521Z,3.16
2018-02-01T01:52:57.543Z,3.08
2018-02-01T01:53:57.560Z,3.14
2018-02-01T01:54:57.577Z,3.06
2018-02-01T01:55:57.587Z,3.06
2018-02-01T01:56:57.606Z,3.08
2018-02-01T01:57:57.625Z,3.13
2018-02-01T01:58:57.636Z,3.05
2018-02-01T01:59:57.652Z,3.13
2018-02-01T02:00:57.669Z,3.09
2018-02-01T02:01:57.691Z,3.11
2018-02-01T02:02:57.708Z,3.05
2018-02-01T02:03:57.719Z,3.09
2018-02-01T02:04:57.734Z,3.06
2018-02-01T02:05:57.758Z,3.17
2018-02-01T02:06:57.773Z,3.09
2018-02-01T02:07:57.784Z,3.05
2018-02-01T02:08:57.806Z,3.16
2018-02-01T02:09:57.823Z,3.06
2018-02-01T02:10:57.840Z,3.08
2018-02-01T02:11:57.850Z,3.11
2018-02-01T02:12:57.867Z,3.11
2018-02-01T02:13:57.890Z,3.05
2018-02-01T02:14:57.900Z,3.08
2018-02-01T02:15:57.916Z,3.06
2018-02-01T02:16:57.934Z,3.08
2018-02-01T02:17:57.955Z,3.14
2018-02-01T02:18:57.966Z,3.11
2018-02-01T02:19:57.988Z,3.09
2018-02-01T02:20:57.999Z,3.13
2018-02-01T02:21:58.022Z,3.13
2018-02-01T02:22:58.032Z,3.13
2018-02-01T02:23:58.053Z,3.09
2018-02-01T02:24:58.070Z,3.11
2018-02-01T02:25:58.082Z,3.14
2018-02-01T02:26:58.099Z,3.11
2018-02-01T02:27:58.122Z,3.09
2018-02-01T02:28:58.137Z,3.08
2018-02-01T02:29:58.152Z,3.05
2018-02-01T02:30:58.175Z,3.14
2018-02-01T02:31:58.180Z,3.08
2018-02-01T02:32:58.197Z,3.11
2018-02-01T02:33:58.208Z,3.20
2018-02-01T02:34:58.230Z,3.13
2018-02-01T02:35:58.241Z,3.09
2018-02-01T02:36:58.263Z,3.14
2018-02-01T02:37:58.274Z,3.16
2018-02-01T02:38:58.299Z,3.19
2018-02-01T02:39:58.306Z,3.19
2018-02-01T02:40:58.324Z,3.17
2018-02-01T02:41:58.341Z,3.08
2018-02-01T02:42:58.364Z,3.09
2018-02-01T02:43:58.374Z,3.20
2018-02-01T02:44:58.395Z,3.14
2018-02-01T02:45:58.406Z,3.16
2018-02-01T02:46:58.426Z,3.16
2018-02-01T02:47:58.440Z,3.09
2018-02-01T02:48:58.456Z,3.14
2018-02-01T02:49:58.478Z,3.19
2018-02-01T02:50:58.496Z,3.21
2018-02-01T02:51:58.505Z,3.06
2018-02-01T02:52:58.523Z,3.16
2018-02-01T02:53:58.551Z,3.17
2018-02-01T02:54:58.568Z,3.17
2018-02-01T02:55:58.578Z,3.08
2018-02-01T02:56:58.599Z,3.17
2018-02-01T02:57:58.618Z,3.19
2018-02-01T02:58:58.632Z,3.14
2018-02-01T02:59:58.647Z,3.06
2018-02-01T03:00:58.661Z,3.11
2018-02-01T03:01:58.681Z,3.06
2018-02-01T03:02:58.694Z,3.08
2018-02-01T03:03:58.709Z,3.06
2018-02-01T03:04:58.731Z,3.11
2018-02-01T03:05:58.743Z,3.13
2018-02-01T03:06:58.761Z,3.09
2018-02-01T03:07:58.781Z,3.08
2018-02-01T03:08:58.799Z,3.03
2018-02-01T03:09:58.809Z,3.11
2018-02-01T03:10:58.827Z,3.06
2018-02-01T03:11:58.848Z,3.03
2018-02-01T03:12:58.859Z,3.11
2018-02-01T03:13:58.881Z,3.02
2018-02-01T03:14:58.899Z,3.06
2018-02-01T03:15:58.907Z,3.02
2018-02-01T03:16:58.926Z,3.02
2018-02-01T03:17:58.946Z,2.98
2018-02-01T03:18:58.963Z,2.98
2018-02-01T03:19:58.973Z,2.98
2018-02-01T03:20:58.991Z,3.01
2018-02-01T03:21:59.012Z,2.93
2018-02-01T03:22:59.030Z,2.95
2018-02-01T03:23:59.039Z,2.93
2018-02-01T03:24:59.057Z,2.95
2018-02-01T03:25:59.079Z,2.90
2018-02-01T03:26:59.095Z,2.96
2018-02-01T03:27:59.107Z,2.80
2018-02-01T03:28:59.132Z,2.90
2018-02-01T03:29:59.139Z,2.88
2018-02-01T03:30:59.161Z,2.90
2018-02-01T03:31:59.173Z,2.78
2018-02-01T03:32:59.194Z,2.95
2018-02-01T03:33:59.205Z,2.91
2018-02-01T03:34:59.228Z,2.72
2018-02-01T03:35:59.238Z,2.91
2018-02-01T03:36:59.260Z,2.77
2018-02-01T03:37:59.271Z,2.87
2018-02-01T03:38:59.294Z,2.77
2018-02-01T03:39:59.303Z,2.81
2018-02-01T03:40:59.326Z,2.73
2018-02-01T03:41:59.337Z,2.81
2018-02-01T03:42:59.360Z,2.73
2018-02-01T03:43:59.370Z,2.84
2018-02-01T03:44:59.386Z,2.84
2018-02-01T03:45:59.409Z,2.78
2018-02-01T03:46:59.420Z,2.73
2018-02-01T03:47:59.456Z,2.84
2018-02-01T03:48:59.453Z,2.76
2018-02-01T03:49:59.475Z,2.84
2018-02-01T03:50:59.484Z,2.63
2018-02-01T03:51:59.507Z,2.73
2018-02-01T03:52:59.517Z,2.80
2018-02-01T03:53:59.541Z,2.67
2018-02-01T03:54:59.552Z,2.66
2018-02-01T03:55:59.572Z,2.80
2018-02-01T03:56:59.586Z,2.65
2018-02-01T03:57:59.606Z,2.60
2018-02-01T03:58:59.617Z,2.66
2018-02-01T03:59:59.638Z,2.67
2018-02-01T04:00:59.649Z,2.67
2018-02-01T04:01:59.671Z,2.70
2018-02-01T04:02:59.691Z,2.69
2018-02-01T04:03:59.699Z,2.81
2018-02-01T04:04:59.714Z,2.67
2018-02-01T04:05:59.737Z,2.70
2018-02-01T04:06:59.754Z,2.77
2018-02-01T04:07:59.763Z,2.70
2018-02-01T04:08:59.780Z,2.58
2018-02-01T04:09:59.803Z,2.63
2018-02-01T04:10:59.818Z,2.62
2018-02-01T04:11:59.829Z,2.65
2018-02-01T04:12:59.844Z,2.78
2018-02-01T04:13:59.869Z,2.65
2018-02-01T04:14:59.886Z,2.72
2018-02-01T04:15:59.894Z,2.63
2018-02-01T04:16:59.911Z,2.69
2018-02-01T04:17:59.933Z,2.63
2018-02-01T04:18:59.956Z,2.65
2018-02-01T04:19:59.960Z,2.72
2018-02-01T04:20:59.977Z,2.65
2018-02-01T04:21:59.999Z,2.69
2018-02-01T04:23:00.018Z,2.65
2018-02-01T04:24:00.027Z,2.67
2018-02-01T04:25:00.048Z,2.76
2018-02-01T04:26:00.061Z,2.76
2018-02-01T04:27:00.082Z,2.62
2018-02-01T04:28:00.092Z,2.66
2018-02-01T04:29:00.113Z,2.69
2018-02-01T04:30:00.125Z,2.66
2018-02-01T04:31:00.146Z,2.59
2018-02-01T04:32:00.157Z,2.66
2018-02-01T04:33:00.178Z,2.58
2018-02-01T04:34:00.194Z,2.59
2018-02-01T04:35:00.211Z,2.67
2018-02-01T04:36:00.222Z,2.66
2018-02-01T04:37:00.245Z,2.60
2018-02-01T04:38:00.256Z,2.62
2018-02-01T04:39:00.277Z,2.66
2018-02-01T04:40:00.287Z,2.63
2018-02-01T04:41:00.304Z,2.67
2018-02-01T04:42:00.325Z,2.67
2018-02-01T04:43:00.338Z,2.72
2018-02-01T04:44:00.359Z,2.63
2018-02-01T04:45:00.370Z,2.60
2018-02-01T04:46:00.392Z,2.73
2018-02-01T04:47:00.404Z,2.73
2018-02-01T04:48:00.424Z,2.66
2018-02-01T04:49:00.435Z,2.70
2018-02-01T04:50:00.457Z,2.63
2018-02-01T04:51:00.468Z,2.65
2018-02-01T04:52:00.489Z,2.70
2018-02-01T04:53:00.500Z,2.73
2018-02-01T04:54:00.523Z,2.62
2018-02-01T04:55:00.534Z,2.67
2018-02-01T04:56:00.555Z,2.66
2018-02-01T04:57:00.565Z,2.78
2018-02-01T04:58:00.589Z,2.70
2018-02-01T04:59:00.604Z,2.60
2018-02-01T05:00:00.614Z,2.69
2018-02-01T05:01:00.630Z,2.66
2018-02-01T05:02:00.653Z,2.65
2018-02-01T05:03:00.669Z,2.70
2018-02-01T05:04:00.679Z,2.66
2018-02-01T05:05:00.697Z,2.63
2018-02-01T05:06:00.719Z,2.73
2018-02-01T05:07:00.733Z,2.69
2018-02-01T05:08:00.744Z,2.67
2018-02-01T05:09:00.762Z,2.78
2018-02-01T05:10:00.784Z,2.65
2018-02-01T05:11:00.800Z,2.59
2018-02-01T05:12:00.814Z,2.70
2018-02-01T05:13:00.832Z,2.72
2018-02-01T05:14:00.843Z,2.77
2018-02-01T05:15:00.865Z,2.69
2018-02-01T05:16:00.875Z,2.78
2018-02-01T05:17:00.897Z,2.76
2018-02-01T05:18:00.907Z,2.73
2018-02-01T05:19:00.930Z,2.69
2018-02-01T05:20:00.941Z,2.80
2018-02-01T05:21:00.956Z,2.70
2018-02-01T05:22:00.973Z,2.65
2018-02-01T05:23:00.995Z,2.67
2018-02-01T05:24:01.005Z,2.63
2018-02-01T05:25:01.027Z,2.66
2018-02-01T05:26:01.038Z,2.70
2018-02-01T05:27:01.055Z,2.72
2018-02-01T05:28:01.069Z,2.67
2018-02-01T05:29:01.087Z,2.73
2018-02-01T05:30:01.109Z,2.70
2018-02-01T05:31:01.126Z,2.66
2018-02-01T05:32:01.135Z,2.67
2018-02-01T05:33:01.152Z,2.69
2018-02-01T05:34:01.174Z,2.73
2018-02-01T05:35:01.191Z,2.72
2018-02-01T05:36:01.200Z,2.72
2018-02-01T05:37:01.222Z,2.59
2018-02-01T05:38:01.233Z,2.59
2018-02-01T05:39:01.255Z,2.69
2018-02-01T05:40:01.265Z,2.62
2018-02-01T05:41:01.287Z,2.58
2018-02-01T05:42:01.304Z,2.58
2018-02-01T05:43:01.315Z,2.63
2018-02-01T05:44:01.331Z,2.58
2018-02-01T05:45:01.347Z,2.63
2018-02-01T05:46:01.369Z,2.60
2018-02-01T05:47:01.386Z,2.60
2018-02-01T05:48:01.395Z,2.58
2018-02-01T05:49:01.412Z,2.63
2018-02-01T05:50:01.433Z,2.52
2018-02-01T05:51:01.451Z,2.59
2018-02-01T05:52:01.462Z,2.60
2018-02-01T05:53:01.483Z,2.55
2018-02-01T05:54:01.499Z,2.52
2018-02-01T05:55:01.517Z,2.51
2018-02-01T05:56:01.525Z,2.52
2018-02-01T05:57:01.543Z,2.52
2018-02-01T05:58:01.563Z,2.52
2018-02-01T05:59:01.575Z,2.55
2018-02-01T06:00:01.590Z,2.52
2018-02-01T06:01:01.606Z,2.54
2018-02-01T06:02:01.628Z,2.52
2018-02-01T06:03:01.640Z,2.58
2018-02-01T06:04:01.662Z,2.45
2018-02-01T06:05:01.671Z,2.54
2018-02-01T06:06:01.693Z,2.51
2018-02-01T06:07:01.705Z,2.51
2018-02-01T06:08:01.726Z,2.52
2018-02-01T06:09:01.745Z,2.58
2018-02-01T06:10:01.758Z,2.52
2018-02-01T06:11:01.769Z,2.52
2018-02-01T06:12:01.791Z,2.52
2018-02-01T06:13:01.802Z,2.54
2018-02-01T06:14:01.824Z,2.45
2018-02-01T06:15:01.841Z,2.52
2018-02-01T06:16:01.856Z,2.48
2018-02-01T06:17:01.868Z,2.44
2018-02-01T06:18:01.889Z,2.48
2018-02-01T06:19:01.900Z,2.54
2018-02-01T06:20:01.921Z,2.42
2018-02-01T06:21:01.937Z,2.47
2018-02-01T06:22:01.956Z,2.42
2018-02-01T06:23:01.965Z,2.47
2018-02-01T06:24:02.035Z,2.45
2018-02-01T06:25:01.997Z,2.48
2018-02-01T06:26:02.019Z,2.45
2018-02-01T06:27:02.035Z,2.42
2018-02-01T06:28:02.045Z,2.42
2018-02-01T06:29:02.060Z,2.45
2018-02-01T06:30:02.077Z,2.42
2018-02-01T06:31:02.093Z,2.42
2018-02-01T06:32:02.109Z,2.44
2018-02-01T06:33:02.135Z,2.51
2018-02-01T06:34:02.142Z,2.48
2018-02-01T06:35:02.164Z,2.42
2018-02-01T06:36:02.174Z,2.44
2018-02-01T06:37:02.196Z,2.41
2018-02-01T06:38:02.206Z,2.40
2018-02-01T06:39:02.229Z,2.36
2018-02-01T06:40:02.239Z,2.40
2018-02-01T06:41:02.267Z,2.40
2018-02-01T06:42:02.272Z,2.38
2018-02-01T06:43:02.323Z,2.41
2018-02-01T06:44:02.305Z,2.41
2018-02-01T06:45:02.325Z,2.45
2018-02-01T06:46:02.342Z,2.42
2018-02-01T06:47:02.352Z,2.40
2018-02-01T06:48:02.386Z,2.45
2018-02-01T06:49:02.390Z,2.48
2018-02-01T06:50:02.402Z,2.41
2018-02-01T06:51:02.419Z,2.36
2018-02-01T06:52:02.439Z,2.34
2018-02-01T06:53:02.456Z,2.34
2018-02-01T06:54:02.466Z,2.31
2018-02-01T06:55:02.484Z,2.42
2018-02-01T06:56:02.503Z,2.34
2018-02-01T06:57:02.519Z,2.34
2018-02-01T06:58:02.536Z,2.41
2018-02-01T06:59:02.553Z,2.47
2018-02-01T07:00:02.582Z,2.40
2018-02-01T07:01:02.596Z,2.36
2018-02-01T07:02:02.601Z,2.42
2018-02-01T07:03:02.612Z,2.40
2018-02-01T07:04:02.628Z,2.40
2018-02-01T07:05:02.643Z,2.44
2018-02-01T07:06:02.667Z,2.44
2018-02-01T07:07:02.685Z,2.40
2018-02-01T07:08:02.692Z,2.40
2018-02-01T07:09:02.709Z,2.42
2018-02-01T07:10:02.731Z,2.44
2018-02-01T07:11:02.747Z,2.44
2018-02-01T07:12:02.757Z,2.45
2018-02-01T07:13:02.779Z,2.44
2018-02-01T07:14:02.795Z,2.44
2018-02-01T07:15:02.807Z,2.42
2018-02-01T07:16:02.828Z,2.47
2018-02-01T07:17:02.838Z,2.48
2018-02-01T07:18:02.860Z,2.44
2018-02-01T07:19:02.876Z,2.42
2018-02-01T07:20:02.891Z,2.42
2018-02-01T07:21:02.903Z,2.44
2018-02-01T07:22:02.926Z,2.44
2018-02-01T07:23:02.936Z,2.48
2018-02-01T07:24:02.955Z,2.48
2018-02-01T07:25:02.966Z,2.55
2018-02-01T07:26:02.991Z,2.42
2018-02-01T07:27:03.002Z,2.52
2018-02-01T07:28:03.021Z,2.49
2018-02-01T07:29:03.031Z,2.49
2018-02-01T07:30:03.055Z,2.45
2018-02-01T07:31:03.064Z,2.60
2018-02-01T07:32:03.085Z,2.62
2018-02-01T07:33:03.096Z,2.59
2018-02-01T07:34:03.118Z,2.69
2018-02-01T07:35:03.134Z,2.62
2018-02-01T07:36:03.150Z,2.65
2018-02-01T07:37:03.161Z,2.63
2018-02-01T07:38:03.183Z,2.67
2018-02-01T07:39:03.198Z,2.63
2018-02-01T07:40:03.208Z,2.65
2018-02-01T07:41:03.249Z,2.63
2018-02-01T07:42:03.247Z,2.72
2018-02-01T07:43:03.264Z,2.66
2018-02-01T07:44:03.277Z,2.72
2018-02-01T07:45:03.290Z,2.72
2018-02-01T07:46:03.314Z,2.66
2018-02-01T07:47:03.330Z,2.72
2018-02-01T07:48:03.339Z,2.65
2018-02-01T07:49:03.356Z,2.81
2018-02-01T07:50:03.378Z,2.66
2018-02-01T07:51:03.393Z,2.73
2018-02-01T07:52:03.403Z,2.78
2018-02-01T07:53:03.420Z,2.69
2018-02-01T07:54:03.442Z,2.70
2018-02-01T07:55:03.460Z,2.83
2018-02-01T07:56:03.470Z,2.81
2018-02-01T07:57:03.487Z,2.78
2018-02-01T07:58:03.507Z,2.80
2018-02-01T07:59:03.525Z,2.87
2018-02-01T08:00:03.535Z,2.87
2018-02-01T08:01:03.553Z,2.90
2018-02-01T08:02:03.574Z,2.81
2018-02-01T08:03:03.590Z,2.84
2018-02-01T08:04:03.601Z,2.93
2018-02-01T08:05:03.616Z,2.91
2018-02-01T08:06:03.639Z,2.95
2018-02-01T08:07:03.655Z,3.01
2018-02-01T08:08:03.665Z,3.11
2018-02-01T08:09:03.687Z,3.08
2018-02-01T08:10:03.700Z,3.11
2018-02-01T08:11:03.723Z,3.05
2018-02-01T08:12:03.732Z,3.08
2018-02-01T08:13:03.756Z,3.01
2018-02-01T08:14:03.766Z,3.11
2018-02-01T08:15:03.787Z,3.08
2018-02-01T08:16:03.797Z,3.08
2018-02-01T08:17:03.820Z,3.08
2018-02-01T08:18:03.831Z,3.09
2018-02-01T08:19:03.854Z,3.09
2018-02-01T08:20:03.865Z,3.08
2018-02-01T08:21:03.886Z,3.14
2018-02-01T08:22:03.897Z,3.21
2018-02-01T08:23:03.920Z,3.17
2018-02-01T08:24:03.930Z,3.24
2018-02-01T08:25:03.953Z,3.26
2018-02-01T08:26:03.964Z,3.42
2018-02-01T08:27:03.987Z,3.53
2018-02-01T08:28:03.997Z,3.51
2018-02-01T08:29:04.019Z,3.51
2018-02-01T08:30:04.031Z,3.42
2018-02-01T08:31:04.053Z,3.46
2018-02-01T08:32:04.064Z,3.40
2018-02-01T08:33:04.080Z,3.46
2018-02-01T08:34:04.103Z,3.45
2018-02-01T08:35:04.114Z,3.42
2018-02-01T08:36:04.136Z,3.49
2018-02-01T08:37:04.147Z,3.53
2018-02-01T08:38:04.170Z,3.60
2018-02-01T08:39:04.184Z,3.54
2018-02-01T08:40:04.204Z,3.69
2018-02-01T08:41:04.218Z,3.64
2018-02-01T08:42:04.237Z,3.69
2018-02-01T08:43:04.248Z,3.71
2018-02-01T08:44:04.271Z,3.85
2018-02-01T08:45:04.283Z,4.04
2018-02-01T08:46:04.306Z,4.14
2018-02-01T08:47:04.317Z,4.08
2018-02-01T08:48:04.339Z,4.08
2018-02-01T08:49:04.351Z,4.07
2018-02-01T08:50:04.374Z,3.96
2018-02-01T08:51:04.391Z,4.12
2018-02-01T08:52:04.401Z,4.11
2018-02-01T08:53:04.418Z,4.14
2018-02-01T08:54:04.442Z,4.02
2018-02-01T08:55:04.458Z,4.04
2018-02-01T08:56:04.470Z,4.11
2018-02-01T08:57:04.493Z,4.07
2018-02-01T08:58:04.506Z,4.17
2018-02-01T08:59:04.527Z,4.14
2018-02-01T09:00:04.544Z,4.28
2018-02-01T09:01:04.563Z,4.20
2018-02-01T09:02:04.575Z,4.33
2018-02-01T09:03:04.592Z,4.39
2018-02-01T09:04:04.615Z,4.38
2018-02-01T09:05:04.626Z,4.42
2018-02-01T09:06:04.652Z,4.48
2018-02-01T09:07:04.667Z,4.58
2018-02-01T09:08:04.678Z,4.57
2018-02-01T09:09:04.696Z,4.68
2018-02-01T09:10:04.720Z,4.72
2018-02-01T09:11:04.738Z,4.90
2018-02-01T09:12:04.750Z,5.45
2018-02-01T09:13:04.766Z,6.29
2018-02-01T09:14:04.790Z,7.22
2018-02-01T09:15:04.808Z,7.09
2018-02-01T09:16:04.825Z,7.96
2018-02-01T09:17:04.841Z,8.22
2018-02-01T09:18:04.862Z,7.88
2018-02-01T09:19:04.881Z,8.34
2018-02-01T09:20:04.894Z,8.50
2018-02-01T09:21:04.920Z,8.64
2018-02-01T09:22:04.933Z,8.09
2018-02-01T09:23:04.960Z,8.50
2018-02-01T09:24:04.975Z,8.95
2018-02-01T09:25:05.001Z,8.92
2018-02-01T09:26:05.017Z,8.65
2018-02-01T09:27:05.050Z,9.00
2018-02-01T09:28:05.059Z,9.67
2018-02-01T09:29:05.088Z,10.28
2018-02-01T09:30:05.110Z,10.41
2018-02-01T09:31:05.128Z,9.74
2018-02-01T09:32:05.156Z,9.92
2018-02-01T09:33:05.174Z,8.61
2018-02-01T09:34:05.203Z,8.94
2018-02-01T09:35:05.221Z,9.84
2018-02-01T09:36:05.250Z,9.17
2018-02-01T09:37:05.269Z,8.89
2018-02-01T09:38:05.469Z,9.62
2018-02-01T09:39:05.412Z,9.88
2018-02-01T09:40:05.346Z,9.21
2018-02-01T09:41:05.366Z,9.93
2018-02-01T09:42:05.439Z,10.20
2018-02-01T09:43:05.415Z,9.57
2018-02-01T09:44:05.447Z,9.89
2018-02-01T09:45:05.471Z,10.55
2018-02-01T09:46:05.492Z,10.73
2018-02-01T09:47:05.523Z,10.59
2018-02-01T09:48:05.542Z,10.17
2018-02-01T09:49:05.573Z,9.39
2018-02-01T09:50:05.593Z,9.82
2018-02-01T09:51:05.625Z,9.70
2018-02-01T09:52:05.647Z,9.64
2018-02-01T09:53:05.677Z,9.01
2018-02-01T09:54:05.699Z,9.12
2018-02-01T09:55:05.730Z,8.82
2018-02-01T09:56:05.749Z,8.19
2018-02-01T09:57:05.781Z,7.96
2018-02-01T09:58:05.805Z,7.03
2018-02-01T09:59:05.833Z,6.78
2018-02-01T10:00:05.852Z,6.36
2018-02-01T10:01:05.878Z,6.09
2018-02-01T10:02:05.911Z,6.02
2018-02-01T10:03:05.933Z,5.89
2018-02-01T10:04:05.952Z,5.92
2018-02-01T10:05:05.977Z,5.85
2018-02-01T10:06:06.006Z,5.95
2018-02-01T10:07:06.030Z,5.88
2018-02-01T10:08:06.048Z,6.17
2018-02-01T10:09:06.071Z,6.37
2018-02-01T10:10:06.101Z,6.47
2018-02-01T10:11:06.123Z,6.54
2018-02-01T10:12:06.139Z,6.57
2018-02-01T10:13:06.162Z,6.57
2018-02-01T10:14:06.190Z,7.30
2018-02-01T10:15:06.213Z,8.65
2018-02-01T10:16:06.233Z,8.74
2018-02-01T10:17:06.257Z,9.62
2018-02-01T10:18:06.345Z,9.35
2018-02-01T10:19:06.297Z,7.99
2018-02-01T10:20:06.331Z,7.27
2018-02-01T10:21:06.370Z,7.11
2018-02-01T10:22:06.383Z,6.93
2018-02-01T10:23:06.410Z,7.71
2018-02-01T10:24:06.505Z,8.22
2018-02-01T10:25:06.456Z,9.57
2018-02-01T10:26:06.496Z,10.07
2018-02-01T10:27:06.500Z,10.28
2018-02-01T10:28:06.560Z,10.36
2018-02-01T10:29:06.600Z,10.28
2018-02-01T10:30:06.567Z,10.57
2018-02-01T10:31:06.571Z,10.44
2018-02-01T10:32:06.601Z,9.70
2018-02-01T10:33:06.619Z,8.49
2018-02-01T10:34:06.647Z,8.17
2018-02-01T10:35:06.666Z,7.74
2018-02-01T10:36:06.695Z,7.23
2018-02-01T10:37:06.714Z,6.94
2018-02-01T10:38:06.744Z,6.86
2018-02-01T10:39:06.762Z,6.80
2018-02-01T10:40:06.791Z,6.88
2018-02-01T10:41:06.815Z,6.88
2018-02-01T10:42:06.833Z,6.97
2018-02-01T10:43:06.868Z,7.05
2018-02-01T10:44:06.878Z,6.86
2018-02-01T10:45:06.907Z,6.95
2018-02-01T10:46:06.926Z,6.75
2018-02-01T10:47:06.953Z,6.67
2018-02-01T10:48:06.970Z,6.43
2018-02-01T10:49:07.000Z,6.14
2018-02-01T10:50:07.016Z,6.07
2018-02-01T10:51:07.043Z,6.17
2018-02-01T10:52:07.060Z,6.02
2018-02-01T10:53:07.087Z,6.17
2018-02-01T10:54:07.104Z,6.15
2018-02-01T10:55:07.176Z,6.07
2018-02-01T10:56:07.145Z,5.95
2018-02-01T10:57:07.175Z,6.00
2018-02-01T10:58:07.189Z,6.02
2018-02-01T10:59:07.210Z,5.92
2018-02-01T11:00:07.282Z,5.82
2018-02-01T11:01:07.265Z,5.82
2018-02-01T11:02:07.273Z,5.77
2018-02-01T11:03:07.294Z,5.81
2018-02-01T11:04:07.320Z,5.78
2018-02-01T11:05:07.334Z,5.85
2018-02-01T11:06:07.359Z,5.80
2018-02-01T11:07:07.381Z,5.77
2018-02-01T11:08:07.395Z,5.73
2018-02-01T11:09:07.416Z,5.70
2018-02-01T11:10:07.441Z,5.69
2018-02-01T11:11:07.465Z,5.72
2018-02-01T11:12:07.474Z,5.70
2018-02-01T11:13:07.499Z,5.59
2018-02-01T11:14:07.514Z,5.49
2018-02-01T11:15:07.534Z,5.46
2018-02-01T11:16:07.557Z,5.48
2018-02-01T11:17:07.577Z,5.48
2018-02-01T11:18:07.591Z,5.46
2018-02-01T11:19:07.610Z,5.46
2018-02-01T11:20:07.636Z,5.31
2018-02-01T11:21:07.658Z,5.42
2018-02-01T11:22:07.667Z,5.39
2018-02-01T11:23:07.686Z,5.42
2018-02-01T11:24:07.710Z,5.41
2018-02-01T11:25:07.728Z,5.36
2018-02-01T11:26:07.743Z,5.30
2018-02-01T11:27:07.763Z,5.34
2018-02-01T11:28:07.791Z,5.33
2018-02-01T11:29:07.799Z,5.28
2018-02-01T11:30:07.822Z,5.34
2018-02-01T11:31:07.837Z,5.24
2018-02-01T11:32:07.861Z,5.36
2018-02-01T11:33:07.874Z,5.37
2018-02-01T11:34:07.899Z,5.34
2018-02-01T11:35:07.910Z,5.44
2018-02-01T11:36:07.934Z,5.45
2018-02-01T11:37:07.953Z,5.42
2018-02-01T11:38:07.964Z,5.31
2018-02-01T11:39:07.990Z,5.31
2018-02-01T11:40:08.003Z,5.44
2018-02-01T11:41:08.027Z,5.44
2018-02-01T11:42:08.040Z,5.34
2018-02-01T11:43:08.065Z,5.30
2018-02-01T11:44:08.076Z,5.33
2018-02-01T11:45:08.093Z,5.27
2018-02-01T11:46:08.119Z,5.23
2018-02-01T11:47:08.137Z,5.28
2018-02-01T11:48:08.149Z,5.27
2018-02-01T11:49:08.173Z,5.20
2018-02-01T11:50:08.191Z,5.12
2018-02-01T11:51:08.209Z,5.12
2018-02-01T11:52:08.227Z,5.06
2018-02-01T11:53:08.239Z,5.00
2018-02-01T11:54:08.264Z,5.13
2018-02-01T11:55:08.302Z,5.05
2018-02-01T11:56:08.299Z,5.20
2018-02-01T11:57:08.313Z,5.10
2018-02-01T11:58:08.336Z,5.18
2018-02-01T11:59:08.350Z,5.20
2018-02-01T12:00:08.372Z,5.23
2018-02-01T12:01:08.384Z,5.21
2018-02-01T12:02:08.403Z,5.21
2018-02-01T12:03:08.422Z,5.21
2018-02-01T12:04:08.444Z,5.10
2018-02-01T12:05:08.457Z,4.90
2018-02-01T12:06:08.482Z,5.03
2018-02-01T12:07:08.494Z,4.98
2018-02-01T12:08:08.510Z,4.92
2018-02-01T12:09:08.530Z,4.88
2018-02-01T12:10:08.554Z,4.88
2018-02-01T12:11:08.576Z,4.90
2018-02-01T12:12:08.583Z,4.87
2018-02-01T12:13:08.602Z,4.85
2018-02-01T12:14:08.626Z,5.02
2018-02-01T12:15:08.644Z,5.27
2018-02-01T12:16:08.655Z,5.46
2018-02-01T12:17:08.678Z,6.95
2018-02-01T12:18:08.693Z,6.80
2018-02-01T12:19:08.715Z,8.44
2018-02-01T12:20:08.735Z,7.89
2018-02-01T12:21:08.747Z,8.60
2018-02-01T12:22:08.766Z,9.90
2018-02-01T12:23:08.785Z,9.75
2018-02-01T12:24:08.811Z,9.88
2018-02-01T12:25:08.828Z,10.52
2018-02-01T12:26:08.843Z,10.39
2018-02-01T12:27:08.864Z,10.28
2018-02-01T12:28:08.888Z,8.54
2018-02-01T12:29:08.909Z,7.30
2018-02-01T12:30:08.925Z,6.94
2018-02-01T12:31:08.946Z,6.33
2018-02-01T12:32:08.971Z,6.03
2018-02-01T12:33:08.988Z,5.96
2018-02-01T12:34:09.014Z,5.84
2018-02-01T12:35:09.029Z,5.85
2018-02-01T12:36:09.049Z,5.77
2018-02-01T12:37:09.075Z,5.85
2018-02-01T12:38:09.097Z,5.85
2018-02-01T12:39:09.124Z,5.96
2018-02-01T12:40:09.132Z,6.07
2018-02-01T12:41:09.159Z,6.10
2018-02-01T12:42:09.174Z,6.13
2018-02-01T12:43:09.200Z,6.14
2018-02-01T12:44:09.213Z,6.13
2018-02-01T12:45:09.240Z,5.95
2018-02-01T12:46:09.256Z,5.87
2018-02-01T12:47:09.282Z,5.91
2018-02-01T12:48:09.295Z,5.82
2018-02-01T12:49:09.321Z,5.82
2018-02-01T12:50:09.335Z,5.84
2018-02-01T12:51:09.355Z,5.95
2018-02-01T12:52:09.384Z,6.05
2018-02-01T12:53:09.394Z,6.15
2018-02-01T12:54:09.414Z,6.07
2018-02-01T12:55:09.435Z,6.10
2018-02-01T12:56:09.453Z,6.14
2018-02-01T12:57:09.474Z,6.07
2018-02-01T12:58:09.503Z,6.05
2018-02-01T12:59:09.514Z,5.96
2018-02-01T13:00:09.538Z,5.82
2018-02-01T13:01:09.552Z,5.81
2018-02-01T13:02:09.578Z,5.87
2018-02-01T13:03:09.591Z,5.84
2018-02-01T13:04:09.615Z,5.78
2018-02-01T13:05:09.629Z,5.69
2018-02-01T13:06:09.655Z,5.63
2018-02-01T13:07:09.668Z,5.62
2018-02-01T13:08:09.692Z,5.72
2018-02-01T13:09:09.712Z,5.67
2018-02-01T13:10:09.734Z,5.78
2018-02-01T13:11:09.745Z,5.77
2018-02-01T13:12:09.764Z,5.72
2018-02-01T13:13:09.783Z,5.63
2018-02-01T13:14:09.807Z,5.62
2018-02-01T13:15:09.827Z,5.64
2018-02-01T13:16:09.839Z,5.55
2018-02-01T13:17:09.859Z,5.52
2018-02-01T13:18:09.883Z,5.60